Azalea Ace — A8ZJ6 — position and weather

sailwx.info

Track history (hours):
 
Tides and Currents Weather Stations Pressure Air Temp Water Temp Dewpoint Dewpoint Depression Visibility Wind Speed Wind Dir Waves Ship Positions

Azalea Ace

Last reported at 2017-Feb-16 21:33 UTC. Time now 2017-Feb-21 03:02 UTC.
Position N 31°06' E 122°22'.

Length 180 m; draft 7.2 m.

Type: Cargo ship. MMSI: 636015228.

Date/timePositionNaut miles runAvg speedWind from/ knotsBaromVisibWave heightAir tempDewpointWater temp
2017-Feb-16 21:33N 31°06' E 122°22'1414.4
2017-Feb-16 20:33N 31°13' E 122°07'1313.3
2017-Feb-16 19:33N 31°16' E 121°52'1010.0
2017-Feb-16 18:33N 31°19' E 121°41'0 0.1
2017-Feb-16 17:32N 31°19' E 121°41'0 0.0
2017-Feb-16 16:32N 31°19' E 121°41'0 0.0
2017-Feb-16 15:32N 31°19' E 121°41'0 0.0
2017-Feb-16 14:29N 31°19' E 121°41'0 0.0
2017-Feb-16 13:32N 31°19' E 121°41'0 0.0
2017-Feb-16 12:32N 31°19' E 121°41'0 0.0
2017-Feb-16 11:26N 31°19' E 121°41'0 0.0
2017-Feb-16 10:32N 31°19' E 121°41'0 0.0
2017-Feb-16 09:32N 31°19' E 121°41'0 0.0
2017-Feb-16 08:32N 31°19' E 121°41'0 0.0
2017-Feb-16 07:32N 31°19' E 121°41'0 0.0
2017-Feb-16 06:32N 31°19' E 121°41'0 0.0
2017-Feb-16 05:32N 31°19' E 121°41'1 0.9
2017-Feb-16 04:33N 31°20' E 121°41'1413.9
2017-Feb-16 03:33N 31°15' E 121°57'1413.9
2017-Feb-16 02:33N 31°10' E 122°12'1313.1
2017-Feb-16 01:33N 31°07' E 122°27'41812.3
2017-Feb-14 15:28N 38°05' E 122°13'1514.6
2017-Feb-14 14:27N 38°11' E 121°55'1414.7
2017-Feb-14 13:32N 38°17' E 121°40'1515.2
2017-Feb-14 12:33N 38°22' E 121°22'1615.6
2017-Feb-14 11:33N 38°28' E 121°04'1615.8
2017-Feb-14 10:33N 38°36' E 120°46'1515.2
2017-Feb-14 09:33N 38°37' E 120°27'1515.1
2017-Feb-14 08:33N 38°39' E 120°07'3114.4
2017-Feb-14 06:26N 38°43' E 119°29'43 1.0
2017-Feb-12 09:28N 38°41' E 120°24'1010.5
2017-Feb-12 08:30N 38°39' E 120°37'1011.0
2017-Feb-12 07:33N 38°37' E 120°50'1211.6
2017-Feb-12 06:34N 38°33' E 121°04'1212.0
2017-Feb-12 05:33N 38°29' E 121°18'1212.0
2017-Feb-12 04:33N 38°26' E 121°33'2 2.5
2017-Feb-12 03:33N 38°26' E 121°36'  
Track history (hours):
 
Tides and Currents Weather Stations Pressure Air Temp Water Temp Dewpoint Dewpoint Depression Visibility Wind Speed Wind Dir Waves Ship Positions

Azalea Ace

Last reported at 2017-Feb-16 21:33 UTC. Time now 2017-Feb-21 03:02 UTC.
Position N 31°06' E 122°22'.

Length 180 m; draft 7.2 m.

Type: Cargo ship. MMSI: 636015228.

Date/timePositionNaut miles runAvg speedWind from/ knotsBaromVisibWave heightAir tempDewpointWater temp
2017-Feb-16 21:33N 31°06' E 122°22'1414.4
2017-Feb-16 20:33N 31°13' E 122°07'1313.3
2017-Feb-16 19:33N 31°16' E 121°52'1010.0
2017-Feb-16 18:33N 31°19' E 121°41'0 0.1
2017-Feb-16 17:32N 31°19' E 121°41'0 0.0
2017-Feb-16 16:32N 31°19' E 121°41'0 0.0
2017-Feb-16 15:32N 31°19' E 121°41'0 0.0
2017-Feb-16 14:29N 31°19' E 121°41'0 0.0
2017-Feb-16 13:32N 31°19' E 121°41'0 0.0
2017-Feb-16 12:32N 31°19' E 121°41'0 0.0
2017-Feb-16 11:26N 31°19' E 121°41'0 0.0
2017-Feb-16 10:32N 31°19' E 121°41'0 0.0
2017-Feb-16 09:32N 31°19' E 121°41'0 0.0
2017-Feb-16 08:32N 31°19' E 121°41'0 0.0
2017-Feb-16 07:32N 31°19' E 121°41'0 0.0
2017-Feb-16 06:32N 31°19' E 121°41'0 0.0
2017-Feb-16 05:32N 31°19' E 121°41'1 0.9
2017-Feb-16 04:33N 31°20' E 121°41'1413.9
2017-Feb-16 03:33N 31°15' E 121°57'1413.9
2017-Feb-16 02:33N 31°10' E 122°12'1313.1
2017-Feb-16 01:33N 31°07' E 122°27'41812.3
2017-Feb-14 15:28N 38°05' E 122°13'1514.6
2017-Feb-14 14:27N 38°11' E 121°55'1414.7
2017-Feb-14 13:32N 38°17' E 121°40'1515.2
2017-Feb-14 12:33N 38°22' E 121°22'1615.6
2017-Feb-14 11:33N 38°28' E 121°04'1615.8
2017-Feb-14 10:33N 38°36' E 120°46'1515.2
2017-Feb-14 09:33N 38°37' E 120°27'1515.1
2017-Feb-14 08:33N 38°39' E 120°07'3114.4
2017-Feb-14 06:26N 38°43' E 119°29'43 1.0
2017-Feb-12 09:28N 38°41' E 120°24'1010.5
2017-Feb-12 08:30N 38°39' E 120°37'1011.0
2017-Feb-12 07:33N 38°37' E 120°50'1211.6
2017-Feb-12 06:34N 38°33' E 121°04'1212.0
2017-Feb-12 05:33N 38°29' E 121°18'1212.0
2017-Feb-12 04:33N 38°26' E 121°33'2 2.5
2017-Feb-12 03:33N 38°26' E 121°36'  

Dump ship's entire track history